Swiss, WV (26690)

4:29 PM EDT on August 27, 2016 (GMT -0400)
KWVGLENF2 | | Change Station

Elev 676 ft 38.15 °N, 81.22 °W | Updated 13 minutes ago

Scattered Clouds
Scattered Clouds
94.4 °F
Feels Like 106 °F
N
1.0
Wind Variable Wind from WNW
Gusts 5.0 mph

Today
High -- | Low -- °F
--% Chance of Precip.
Yesterday
High -- | Low -- °F
Precip. -- in
Pressure 30.06 in
Visibility 10.0 miles
Clouds Scattered Clouds 5000 ft
Heat Index 106 °F
Dew Point 75 °F
Humidity 53%
Rainfall 0.00 in
Snow Depth Not available.
6:49 AM 8:00 PM
Waning Crescent, 22% visible
METAR KCRW 271954Z 14003KT 10SM SCT050 33/21 A3009 RMK AO2 SLP179 T03330211 $
Pressure 30.06 in
Visibility 10.0 miles
Clouds Scattered Clouds 5000 ft
Heat Index 106 °F
Dew Point 75 °F
Humidity 53%
Rainfall 0.00 in
Snow Depth Not available.
6:49 AM 8:00 PM
Waning Crescent, 22% visible
METAR KCRW 271954Z 14003KT 10SM SCT050 33/21 A3009 RMK AO2 SLP179 T03330211 $

10-Day Weather Forecast

Almanac

Astronomy

Aug. 27, 2016 Rise Set
Actual Time
Civil Twilight
Nautical Twilight
Astronomical Twilight
Moon
Length of Visible Light
Length of Day
Tomorrow will be .
, % of the Moon is Illuminated

Today's Extremes

State Highs State Lows

Community

WunderPhotos

Upload Photos

1,935,434 photos uploaded!

WunderBlog® & News

Nearby

Air Quality

  Air Quality AQ Index Pollutant
Not available.

Snow Depth

Station Depth Elevation

Earthquake Activity

City Distance Mag. Time & Date
Minimum magnitude displayed is 2.5.

Coastal Water Temperatures

Place Temperature

Stations

Nearby Weather Stations

Station Location Temp. Windchill Dew Point Humidity Wind Precip. Elev Updated Type
                   

Watches & Warnings

There are currently no watches in effect.